27C weather

Mecosta Morton Airport
Mecosta, Michigan, United States

Public forecast

Using degrees Fahrenheit for public forecast. Weather courtesy of forecast.io.

Closest aviation weather report (METAR) to Mecosta Morton Airport

Closest report is Roben Hood Airport, 11.9 nm (22.0 km) WNW. Retrieved 2020/01/25 04:36 UTC (0 seconds ago):

KRQB 250436Z AUTO 00000KT 5SM -SN OVC005 01/00 A2977 RMK AO2 P0001 T00060000

Closest aviation forecast (TAF) to Mecosta Morton Airport

Closest forecast is Gerald R. Ford International Airport, 46.4 nm (85.8 km) SSW. Retrieved 2020-01-25 00:42 UTC (4 hours ago):

TAF KGRR 242340Z 2500/2524 07008KT 2SM BR VCSH OVC003 FM250500 11006KT 1/2SM FG VCSH OVC002 FM251000 17005KT 1SM BR VCSH OVC003 FM251700 17005KT 4SM BR OVC004